Terminal Aerodrome Forecast
Issued by NWS Blacksburg, VA

Current Version | Previous Version | Text Only | Print | Product List | Glossary Off
Versions: 1 2 3 4 5 6 7 8 9 10 11 12 13

000
FTUS41 KRNK 250520
TAFBLF
TAF
KBLF 250520Z 2506/2606 VRB03KT P6SM SCT250
     FM251500 25007KT P6SM SCT050 SCT250
     FM252000 27008KT P6SM VCSH BKN050
     FM260200 24005KT P6SM SCT050 BKN120=

USA.gov is the U.S. government's official web portal to all federal, state and local government web resources and services.